createdAt,value
2018-10-12T04:12:26.181Z,101006.00
2018-10-12T04:18:29.642Z,101013.00
2018-10-12T04:24:33.056Z,100994.00
2018-10-12T04:30:36.605Z,101007.00
2018-10-12T04:36:40.011Z,101023.00
2018-10-12T04:42:43.656Z,101032.00
2018-10-12T04:48:48.911Z,101051.00
2018-10-12T04:54:52.333Z,101055.00
2018-10-12T05:00:55.831Z,101061.00
2018-10-12T05:06:59.362Z,101071.00
2018-10-12T05:13:02.955Z,101085.00
2018-10-12T05:19:07.474Z,101092.00
2018-10-12T05:25:10.934Z,101106.00
2018-10-12T05:31:15.509Z,101110.00
2018-10-12T05:37:18.932Z,101126.00
2018-10-12T05:43:22.393Z,101126.00
2018-10-12T05:49:42.755Z,101133.00
2018-10-12T05:55:47.245Z,101145.00
2018-10-12T06:01:50.753Z,101148.00
2018-10-12T06:07:54.252Z,101160.00
2018-10-12T06:13:57.679Z,101159.00
2018-10-12T06:20:01.071Z,101165.00
2018-10-12T06:26:05.114Z,101178.00
2018-10-12T06:32:08.553Z,101187.00
2018-10-12T06:38:12.025Z,101187.00
2018-10-12T06:44:15.411Z,101207.00
2018-10-12T06:50:18.918Z,101210.00
2018-10-12T06:56:23.894Z,101228.00
2018-10-12T07:02:27.479Z,101240.00
2018-10-12T07:08:30.988Z,101252.00
2018-10-12T07:14:35.120Z,101260.00
2018-10-12T07:20:38.495Z,101264.00
2018-10-12T07:26:41.943Z,101267.00
2018-10-12T07:32:45.433Z,101274.00
2018-10-12T07:38:48.891Z,101278.00
2018-10-12T07:44:52.337Z,101288.00
2018-10-12T07:50:55.835Z,101289.00
2018-10-12T07:57:04.948Z,101296.00
2018-10-12T08:03:08.507Z,101287.00
2018-10-12T08:09:11.979Z,101296.00
2018-10-12T08:15:15.432Z,101297.00
2018-10-12T08:21:19.037Z,101309.00
2018-10-12T08:27:23.129Z,101314.00
2018-10-12T08:33:26.658Z,101327.00
2018-10-12T08:39:30.216Z,101326.00
2018-10-12T08:45:33.856Z,101349.00
2018-10-12T08:51:37.178Z,101346.00
2018-10-12T08:57:40.763Z,101360.00
2018-10-12T09:03:44.224Z,101349.00
2018-10-12T09:09:47.638Z,101349.00
2018-10-12T09:15:51.188Z,101347.00
2018-10-12T09:21:54.909Z,101366.00
2018-10-12T09:27:58.312Z,101362.00
2018-10-12T09:34:02.251Z,101365.00
2018-10-12T09:40:05.918Z,101357.00
2018-10-12T09:46:09.336Z,101346.00
2018-10-12T09:52:12.936Z,101348.00
2018-10-12T09:58:16.336Z,101348.00
2018-10-12T10:04:25.269Z,101337.00
2018-10-12T10:10:28.689Z,101336.00
2018-10-12T10:16:32.200Z,101331.00
2018-10-12T10:22:35.655Z,101330.00
2018-10-12T10:28:39.758Z,101328.00
2018-10-12T10:34:44.309Z,101328.00
2018-10-12T10:40:47.787Z,101311.00
2018-10-12T10:46:51.200Z,101318.00
2018-10-12T10:52:54.726Z,101319.00
2018-10-12T10:58:58.271Z,101322.00
2018-10-12T11:05:01.763Z,101317.00
2018-10-12T11:11:05.832Z,101309.00
2018-10-12T11:17:09.432Z,101324.00
2018-10-12T11:23:12.849Z,101323.00
2018-10-12T11:29:16.258Z,101310.00
2018-10-12T11:35:19.840Z,101312.00
2018-10-12T11:41:23.219Z,101304.00
2018-10-12T11:47:27.677Z,101304.00
2018-10-12T11:53:31.166Z,101299.00
2018-10-12T11:59:36.171Z,101305.00
2018-10-12T12:05:40.061Z,101304.00
2018-10-12T12:11:43.555Z,101296.00
2018-10-12T12:17:47.308Z,101303.00
2018-10-12T12:23:50.709Z,101303.00
2018-10-12T12:29:54.067Z,101298.00
2018-10-12T12:35:57.892Z,101289.00
2018-10-12T12:48:38.334Z,101286.00
2018-10-12T12:54:41.536Z,101286.00
2018-10-12T13:00:45.687Z,101283.00
2018-10-12T13:06:49.136Z,101276.00
2018-10-12T13:12:52.549Z,101271.00
2018-10-12T13:18:56.022Z,101275.00
2018-10-12T13:24:59.457Z,101273.00
2018-10-12T13:31:02.824Z,101294.00
2018-10-12T13:37:06.335Z,101290.00
2018-10-12T13:43:10.537Z,101302.00
2018-10-12T13:49:14.336Z,101304.00
2018-10-12T13:55:17.781Z,101295.00
2018-10-12T14:01:21.660Z,101296.00
2018-10-12T14:07:25.157Z,101290.00
2018-10-12T14:13:28.570Z,101292.00
2018-10-12T14:19:32.283Z,101293.00
2018-10-12T14:25:36.575Z,101290.00
2018-10-12T14:31:40.465Z,101299.00
2018-10-12T14:37:43.955Z,101287.00
2018-10-12T14:43:47.844Z,101287.00
2018-10-12T14:49:51.191Z,101288.00
2018-10-12T14:55:54.591Z,101282.00
2018-10-12T15:01:58.017Z,101292.00
2018-10-12T15:08:05.620Z,101294.00
2018-10-12T15:14:09.255Z,101299.00
2018-10-12T15:20:12.615Z,101297.00
2018-10-12T15:26:15.983Z,101292.00
2018-10-12T15:32:19.407Z,101298.00
2018-10-12T15:38:22.911Z,101302.00
2018-10-12T15:44:26.298Z,101300.00
2018-10-12T15:50:29.872Z,101303.00
2018-10-12T15:56:33.461Z,101298.00
2018-10-12T16:02:37.154Z,101301.00
2018-10-12T16:08:40.892Z,101296.00
2018-10-12T16:14:44.414Z,101302.00
2018-10-12T16:20:47.917Z,101295.00
2018-10-12T16:26:52.095Z,101305.00
2018-10-12T16:32:55.595Z,101315.00
2018-10-12T16:38:59.316Z,101328.00
2018-10-12T16:45:02.819Z,101322.00
2018-10-12T16:51:06.702Z,101331.00
2018-10-12T16:57:10.155Z,101337.00
2018-10-12T17:03:13.758Z,101341.00
2018-10-12T17:09:18.732Z,101341.00
2018-10-12T17:15:22.590Z,101333.00
2018-10-12T17:21:26.198Z,101344.00
2018-10-12T17:27:29.855Z,101355.00
2018-10-12T17:33:34.229Z,101359.00
2018-10-12T17:39:37.705Z,101367.00
2018-10-12T17:45:41.203Z,101376.00
2018-10-12T17:51:45.485Z,101379.00
2018-10-12T17:57:49.054Z,101383.00
2018-10-12T18:03:52.525Z,101398.00
2018-10-12T18:09:57.620Z,101394.00
2018-10-12T18:16:02.149Z,101378.00
2018-10-12T18:22:05.945Z,101375.00
2018-10-12T18:28:09.734Z,101383.00
2018-10-12T18:34:13.263Z,101391.00
2018-10-12T18:40:16.750Z,101396.00
2018-10-12T18:46:20.337Z,101396.00
2018-10-12T18:52:23.958Z,101403.00
2018-10-12T18:58:27.525Z,101405.00
2018-10-12T19:04:31.233Z,101410.00
2018-10-12T19:10:35.506Z,101418.00
2018-10-12T19:16:39.256Z,101409.00
2018-10-12T19:22:43.320Z,101417.00
2018-10-12T19:28:46.910Z,101418.00
2018-10-12T19:34:50.835Z,101418.00
2018-10-12T19:40:55.679Z,101428.00
2018-10-12T19:46:59.473Z,101430.00
2018-10-12T19:53:13.829Z,101438.00
2018-10-12T19:59:17.554Z,101438.00
2018-10-12T20:05:21.248Z,101434.00
2018-10-12T20:11:24.714Z,101442.00
2018-10-12T20:17:29.402Z,101438.00
2018-10-12T20:23:32.932Z,101437.00
2018-10-12T20:29:37.022Z,101444.00
2018-10-12T20:35:45.516Z,101453.00
2018-10-12T20:41:49.045Z,101449.00
2018-10-12T20:47:52.537Z,101445.00
2018-10-12T20:53:56.123Z,101446.00
2018-10-12T21:00:00.886Z,101444.00
2018-10-12T21:06:05.005Z,101439.00
2018-10-12T21:12:09.948Z,101452.00
2018-10-12T21:18:14.080Z,101456.00
2018-10-12T21:24:17.598Z,101454.00
2018-10-12T21:30:24.131Z,101451.00
2018-10-12T21:36:31.290Z,101455.00
2018-10-12T21:42:36.313Z,101444.00
2018-10-12T21:48:40.791Z,101448.00
2018-10-12T21:54:44.430Z,101448.00
2018-10-12T22:00:54.624Z,101440.00
2018-10-12T22:06:58.297Z,101448.00
2018-10-12T22:13:02.195Z,101371.00
2018-10-12T22:19:06.392Z,101439.00
2018-10-12T22:25:10.343Z,101436.00
2018-10-12T22:31:14.083Z,101429.00
2018-10-12T22:37:18.324Z,101425.00
2018-10-12T22:43:21.798Z,101349.00
2018-10-12T22:49:25.309Z,101423.00
2018-10-12T22:55:29.281Z,101414.00
2018-10-12T23:01:33.777Z,101414.00
2018-10-12T23:07:37.419Z,101417.00
2018-10-12T23:13:41.025Z,101409.00
2018-10-12T23:19:44.577Z,101404.00
2018-10-12T23:25:48.366Z,101390.00
2018-10-12T23:31:51.998Z,101367.00
2018-10-12T23:37:55.439Z,101395.00
2018-10-12T23:43:59.532Z,101384.00
2018-10-12T23:50:03.084Z,101387.00
2018-10-12T23:56:06.611Z,101383.00
